sensor_id;sensor_type;location;lat;lon;timestamp;P1;durP1;ratioP1;P2;durP2;ratioP2
74957;SDS011;63741;42.624;26.276;2022-12-07T00:01:14;17.13;;;9.75;;
74957;SDS011;63741;42.624;26.276;2022-12-07T00:03:44;17.77;;;10.40;;
74957;SDS011;63741;42.624;26.276;2022-12-07T00:06:13;16.25;;;9.75;;
74957;SDS011;63741;42.624;26.276;2022-12-07T00:08:41;16.60;;;9.45;;
74957;SDS011;63741;42.624;26.276;2022-12-07T00:11:12;18.98;;;10.18;;
74957;SDS011;63741;42.624;26.276;2022-12-07T00:13:42;18.90;;;11.23;;
74957;SDS011;63741;42.624;26.276;2022-12-07T00:16:10;19.25;;;11.40;;
74957;SDS011;63741;42.624;26.276;2022-12-07T00:18:40;20.63;;;12.13;;
74957;SDS011;63741;42.624;26.276;2022-12-07T00:21:12;18.75;;;12.27;;
74957;SDS011;63741;42.624;26.276;2022-12-07T00:23:42;21.80;;;13.00;;
74957;SDS011;63741;42.624;26.276;2022-12-07T00:26:11;20.95;;;12.70;;
74957;SDS011;63741;42.624;26.276;2022-12-07T00:28:39;18.85;;;11.65;;
74957;SDS011;63741;42.624;26.276;2022-12-07T00:31:08;19.95;;;11.30;;
74957;SDS011;63741;42.624;26.276;2022-12-07T00:33:36;17.42;;;10.65;;
74957;SDS011;63741;42.624;26.276;2022-12-07T00:36:05;22.00;;;11.90;;
74957;SDS011;63741;42.624;26.276;2022-12-07T00:38:34;19.00;;;11.48;;
74957;SDS011;63741;42.624;26.276;2022-12-07T00:41:21;20.05;;;11.50;;
74957;SDS011;63741;42.624;26.276;2022-12-07T00:43:49;19.75;;;11.15;;
74957;SDS011;63741;42.624;26.276;2022-12-07T00:46:18;18.13;;;12.02;;
74957;SDS011;63741;42.624;26.276;2022-12-07T00:48:46;20.63;;;11.20;;
74957;SDS011;63741;42.624;26.276;2022-12-07T00:51:14;17.20;;;10.98;;
74957;SDS011;63741;42.624;26.276;2022-12-07T00:53:42;17.63;;;10.93;;
74957;SDS011;63741;42.624;26.276;2022-12-07T00:56:13;17.95;;;10.60;;
74957;SDS011;63741;42.624;26.276;2022-12-07T00:58:42;18.80;;;11.30;;
74957;SDS011;63741;42.624;26.276;2022-12-07T01:01:10;19.15;;;11.32;;
74957;SDS011;63741;42.624;26.276;2022-12-07T01:03:38;16.70;;;10.32;;
74957;SDS011;63741;42.624;26.276;2022-12-07T01:06:05;17.92;;;10.63;;
74957;SDS011;63741;42.624;26.276;2022-12-07T01:08:33;19.08;;;11.05;;
74957;SDS011;63741;42.624;26.276;2022-12-07T01:11:04;18.45;;;11.23;;
74957;SDS011;63741;42.624;26.276;2022-12-07T01:13:33;16.50;;;10.13;;
74957;SDS011;63741;42.624;26.276;2022-12-07T01:16:02;19.02;;;10.95;;
74957;SDS011;63741;42.624;26.276;2022-12-07T01:18:32;19.17;;;10.75;;
74957;SDS011;63741;42.624;26.276;2022-12-07T01:21:11;20.90;;;12.25;;
74957;SDS011;63741;42.624;26.276;2022-12-07T01:23:43;21.25;;;13.43;;
74957;SDS011;63741;42.624;26.276;2022-12-07T01:26:11;22.90;;;12.77;;
74957;SDS011;63741;42.624;26.276;2022-12-07T01:28:40;21.92;;;12.88;;
74957;SDS011;63741;42.624;26.276;2022-12-07T01:31:08;22.48;;;13.77;;
74957;SDS011;63741;42.624;26.276;2022-12-07T01:33:38;22.77;;;13.18;;
74957;SDS011;63741;42.624;26.276;2022-12-07T01:36:13;21.55;;;12.93;;
74957;SDS011;63741;42.624;26.276;2022-12-07T01:38:48;21.90;;;13.35;;
74957;SDS011;63741;42.624;26.276;2022-12-07T01:41:18;22.95;;;13.52;;
74957;SDS011;63741;42.624;26.276;2022-12-07T01:46:34;23.02;;;13.88;;
74957;SDS011;63741;42.624;26.276;2022-12-07T01:49:02;24.73;;;14.60;;
74957;SDS011;63741;42.624;26.276;2022-12-07T01:51:32;26.65;;;16.05;;
74957;SDS011;63741;42.624;26.276;2022-12-07T01:54:01;24.98;;;14.60;;
74957;SDS011;63741;42.624;26.276;2022-12-07T01:56:28;24.50;;;14.13;;
74957;SDS011;63741;42.624;26.276;2022-12-07T01:58:56;23.65;;;14.25;;
74957;SDS011;63741;42.624;26.276;2022-12-07T02:01:24;21.17;;;12.88;;
74957;SDS011;63741;42.624;26.276;2022-12-07T02:03:51;20.75;;;13.02;;
74957;SDS011;63741;42.624;26.276;2022-12-07T02:06:20;18.48;;;11.60;;
74957;SDS011;63741;42.624;26.276;2022-12-07T02:08:51;20.40;;;10.73;;
74957;SDS011;63741;42.624;26.276;2022-12-07T02:11:18;19.88;;;11.20;;
74957;SDS011;63741;42.624;26.276;2022-12-07T02:13:46;17.65;;;10.30;;
74957;SDS011;63741;42.624;26.276;2022-12-07T02:30:15;18.20;;;10.18;;
74957;SDS011;63741;42.624;26.276;2022-12-07T02:35:33;17.63;;;10.50;;
74957;SDS011;63741;42.624;26.276;2022-12-07T02:38:19;19.73;;;10.95;;
74957;SDS011;63741;42.624;26.276;2022-12-07T02:41:00;18.35;;;10.68;;
74957;SDS011;63741;42.624;26.276;2022-12-07T02:43:34;17.67;;;9.98;;
74957;SDS011;63741;42.624;26.276;2022-12-07T02:46:08;17.15;;;10.07;;
74957;SDS011;63741;42.624;26.276;2022-12-07T02:48:39;18.50;;;10.43;;
74957;SDS011;63741;42.624;26.276;2022-12-07T02:51:09;19.50;;;10.73;;
74957;SDS011;63741;42.624;26.276;2022-12-07T02:53:40;19.80;;;10.80;;
74957;SDS011;63741;42.624;26.276;2022-12-07T02:59:15;17.80;;;10.32;;
74957;SDS011;63741;42.624;26.276;2022-12-07T03:04:21;16.73;;;9.45;;
74957;SDS011;63741;42.624;26.276;2022-12-07T03:07:00;19.73;;;11.27;;
74957;SDS011;63741;42.624;26.276;2022-12-07T03:09:48;18.80;;;11.52;;
74957;SDS011;63741;42.624;26.276;2022-12-07T03:15:35;17.58;;;10.60;;
74957;SDS011;63741;42.624;26.276;2022-12-07T03:18:09;18.55;;;11.07;;
74957;SDS011;63741;42.624;26.276;2022-12-07T03:20:39;18.45;;;10.48;;
74957;SDS011;63741;42.624;26.276;2022-12-07T03:23:10;20.23;;;10.93;;
74957;SDS011;63741;42.624;26.276;2022-12-07T03:25:43;21.00;;;11.25;;
74957;SDS011;63741;42.624;26.276;2022-12-07T03:28:14;19.58;;;11.23;;
74957;SDS011;63741;42.624;26.276;2022-12-07T03:30:59;26.10;;;12.13;;
74957;SDS011;63741;42.624;26.276;2022-12-07T03:33:32;21.42;;;11.00;;
74957;SDS011;63741;42.624;26.276;2022-12-07T03:36:23;19.02;;;10.25;;
74957;SDS011;63741;42.624;26.276;2022-12-07T03:39:00;18.05;;;10.55;;
74957;SDS011;63741;42.624;26.276;2022-12-07T03:41:33;18.45;;;10.68;;
74957;SDS011;63741;42.624;26.276;2022-12-07T03:44:10;17.52;;;11.25;;
74957;SDS011;63741;42.624;26.276;2022-12-07T03:46:50;19.60;;;10.82;;
74957;SDS011;63741;42.624;26.276;2022-12-07T03:49:30;20.50;;;12.23;;
74957;SDS011;63741;42.624;26.276;2022-12-07T03:52:24;22.55;;;11.88;;
74957;SDS011;63741;42.624;26.276;2022-12-07T03:55:08;19.15;;;11.57;;
74957;SDS011;63741;42.624;26.276;2022-12-07T03:57:36;20.63;;;11.45;;
74957;SDS011;63741;42.624;26.276;2022-12-07T04:00:06;22.02;;;12.75;;
74957;SDS011;63741;42.624;26.276;2022-12-07T04:02:40;19.60;;;11.15;;
74957;SDS011;63741;42.624;26.276;2022-12-07T04:05:08;20.83;;;11.48;;
74957;SDS011;63741;42.624;26.276;2022-12-07T04:07:36;22.58;;;11.30;;
74957;SDS011;63741;42.624;26.276;2022-12-07T04:10:03;19.92;;;10.45;;
74957;SDS011;63741;42.624;26.276;2022-12-07T04:12:31;20.15;;;11.13;;
74957;SDS011;63741;42.624;26.276;2022-12-07T04:14:58;18.70;;;9.90;;
74957;SDS011;63741;42.624;26.276;2022-12-07T04:17:25;21.48;;;11.07;;
74957;SDS011;63741;42.624;26.276;2022-12-07T04:19:52;18.27;;;10.80;;
74957;SDS011;63741;42.624;26.276;2022-12-07T04:22:18;17.20;;;10.40;;
74957;SDS011;63741;42.624;26.276;2022-12-07T04:24:45;18.92;;;10.45;;
74957;SDS011;63741;42.624;26.276;2022-12-07T04:27:12;19.83;;;11.88;;
74957;SDS011;63741;42.624;26.276;2022-12-07T04:29:39;21.63;;;13.23;;
74957;SDS011;63741;42.624;26.276;2022-12-07T04:32:06;25.45;;;15.30;;
74957;SDS011;63741;42.624;26.276;2022-12-07T04:34:34;31.73;;;18.60;;
74957;SDS011;63741;42.624;26.276;2022-12-07T04:37:01;30.13;;;16.60;;
74957;SDS011;63741;42.624;26.276;2022-12-07T04:39:29;25.75;;;14.05;;
74957;SDS011;63741;42.624;26.276;2022-12-07T04:41:57;25.05;;;12.85;;
74957;SDS011;63741;42.624;26.276;2022-12-07T04:44:25;23.65;;;12.18;;
74957;SDS011;63741;42.624;26.276;2022-12-07T04:46:53;25.25;;;12.00;;
74957;SDS011;63741;42.624;26.276;2022-12-07T04:49:21;23.83;;;11.38;;
74957;SDS011;63741;42.624;26.276;2022-12-07T04:51:48;20.85;;;11.30;;
74957;SDS011;63741;42.624;26.276;2022-12-07T04:54:15;18.67;;;10.65;;
74957;SDS011;63741;42.624;26.276;2022-12-07T04:56:42;18.42;;;10.32;;
74957;SDS011;63741;42.624;26.276;2022-12-07T04:59:13;19.67;;;10.48;;
74957;SDS011;63741;42.624;26.276;2022-12-07T05:01:41;19.15;;;10.75;;
74957;SDS011;63741;42.624;26.276;2022-12-07T05:04:08;17.75;;;10.95;;
74957;SDS011;63741;42.624;26.276;2022-12-07T05:06:35;18.67;;;10.60;;
74957;SDS011;63741;42.624;26.276;2022-12-07T05:09:02;18.85;;;10.73;;
74957;SDS011;63741;42.624;26.276;2022-12-07T05:11:30;18.75;;;10.57;;
74957;SDS011;63741;42.624;26.276;2022-12-07T05:14:15;22.85;;;11.52;;
74957;SDS011;63741;42.624;26.276;2022-12-07T05:16:44;20.10;;;10.80;;
74957;SDS011;63741;42.624;26.276;2022-12-07T05:19:12;24.83;;;11.20;;
74957;SDS011;63741;42.624;26.276;2022-12-07T05:21:39;20.63;;;10.93;;
74957;SDS011;63741;42.624;26.276;2022-12-07T05:24:07;21.48;;;11.93;;
74957;SDS011;63741;42.624;26.276;2022-12-07T05:26:36;21.08;;;11.70;;
74957;SDS011;63741;42.624;26.276;2022-12-07T05:29:03;24.25;;;11.75;;
74957;SDS011;63741;42.624;26.276;2022-12-07T05:31:30;22.55;;;11.63;;
74957;SDS011;63741;42.624;26.276;2022-12-07T05:33:57;22.83;;;12.13;;
74957;SDS011;63741;42.624;26.276;2022-12-07T05:36:24;24.58;;;14.00;;
74957;SDS011;63741;42.624;26.276;2022-12-07T05:38:51;22.88;;;13.57;;
74957;SDS011;63741;42.624;26.276;2022-12-07T05:41:18;24.73;;;13.90;;
74957;SDS011;63741;42.624;26.276;2022-12-07T05:44:04;23.48;;;12.80;;
74957;SDS011;63741;42.624;26.276;2022-12-07T05:46:32;22.10;;;11.80;;
74957;SDS011;63741;42.624;26.276;2022-12-07T05:48:59;23.85;;;12.20;;
74957;SDS011;63741;42.624;26.276;2022-12-07T05:51:26;30.20;;;18.73;;
74957;SDS011;63741;42.624;26.276;2022-12-07T05:53:53;30.30;;;19.92;;
74957;SDS011;63741;42.624;26.276;2022-12-07T05:56:20;29.25;;;19.45;;
74957;SDS011;63741;42.624;26.276;2022-12-07T05:58:47;34.03;;;20.67;;
74957;SDS011;63741;42.624;26.276;2022-12-07T06:01:32;29.95;;;18.52;;
74957;SDS011;63741;42.624;26.276;2022-12-07T06:03:59;31.25;;;18.05;;
74957;SDS011;63741;42.624;26.276;2022-12-07T06:06:26;35.08;;;20.02;;
74957;SDS011;63741;42.624;26.276;2022-12-07T06:08:53;41.72;;;25.60;;
74957;SDS011;63741;42.624;26.276;2022-12-07T06:11:20;42.60;;;23.35;;
74957;SDS011;63741;42.624;26.276;2022-12-07T06:14:05;29.45;;;16.23;;
74957;SDS011;63741;42.624;26.276;2022-12-07T06:16:32;24.48;;;14.25;;
74957;SDS011;63741;42.624;26.276;2022-12-07T06:18:59;22.83;;;13.13;;
74957;SDS011;63741;42.624;26.276;2022-12-07T06:21:26;23.33;;;13.57;;
74957;SDS011;63741;42.624;26.276;2022-12-07T06:23:53;25.17;;;13.48;;
74957;SDS011;63741;42.624;26.276;2022-12-07T06:26:21;24.35;;;13.95;;
74957;SDS011;63741;42.624;26.276;2022-12-07T06:28:48;20.08;;;11.60;;
74957;SDS011;63741;42.624;26.276;2022-12-07T06:31:15;20.50;;;11.10;;
74957;SDS011;63741;42.624;26.276;2022-12-07T06:33:42;19.55;;;10.32;;
74957;SDS011;63741;42.624;26.276;2022-12-07T06:36:09;20.83;;;11.70;;
74957;SDS011;63741;42.624;26.276;2022-12-07T06:38:36;20.23;;;10.93;;
74957;SDS011;63741;42.624;26.276;2022-12-07T06:41:03;27.33;;;12.70;;
74957;SDS011;63741;42.624;26.276;2022-12-07T06:43:31;23.40;;;12.38;;
74957;SDS011;63741;42.624;26.276;2022-12-07T06:45:58;24.67;;;12.85;;
74957;SDS011;63741;42.624;26.276;2022-12-07T06:48:24;23.70;;;11.98;;
74957;SDS011;63741;42.624;26.276;2022-12-07T06:50:51;29.08;;;14.07;;
74957;SDS011;63741;42.624;26.276;2022-12-07T06:53:21;30.08;;;14.60;;
74957;SDS011;63741;42.624;26.276;2022-12-07T06:55:48;30.27;;;15.00;;
74957;SDS011;63741;42.624;26.276;2022-12-07T06:58:15;32.00;;;15.23;;
74957;SDS011;63741;42.624;26.276;2022-12-07T07:00:43;34.25;;;16.05;;
74957;SDS011;63741;42.624;26.276;2022-12-07T07:03:11;38.13;;;17.63;;
74957;SDS011;63741;42.624;26.276;2022-12-07T07:05:38;41.90;;;18.60;;
74957;SDS011;63741;42.624;26.276;2022-12-07T07:08:05;42.40;;;19.15;;
74957;SDS011;63741;42.624;26.276;2022-12-07T07:10:48;46.70;;;20.08;;
74957;SDS011;63741;42.624;26.276;2022-12-07T07:13:16;44.00;;;19.50;;
74957;SDS011;63741;42.624;26.276;2022-12-07T07:15:43;44.88;;;18.67;;
74957;SDS011;63741;42.624;26.276;2022-12-07T07:18:10;40.38;;;18.35;;
74957;SDS011;63741;42.624;26.276;2022-12-07T07:20:37;45.17;;;18.55;;
74957;SDS011;63741;42.624;26.276;2022-12-07T07:23:04;39.78;;;18.02;;
74957;SDS011;63741;42.624;26.276;2022-12-07T07:25:32;35.75;;;16.77;;
74957;SDS011;63741;42.624;26.276;2022-12-07T07:27:59;38.60;;;17.30;;
74957;SDS011;63741;42.624;26.276;2022-12-07T07:30:26;39.42;;;17.60;;
74957;SDS011;63741;42.624;26.276;2022-12-07T07:32:57;40.60;;;17.00;;
74957;SDS011;63741;42.624;26.276;2022-12-07T07:35:25;37.78;;;16.55;;
74957;SDS011;63741;42.624;26.276;2022-12-07T07:37:53;30.40;;;14.90;;
74957;SDS011;63741;42.624;26.276;2022-12-07T07:40:20;35.15;;;15.95;;
74957;SDS011;63741;42.624;26.276;2022-12-07T07:42:53;33.47;;;14.98;;
74957;SDS011;63741;42.624;26.276;2022-12-07T07:45:21;33.28;;;14.95;;
74957;SDS011;63741;42.624;26.276;2022-12-07T07:47:49;34.35;;;15.90;;
74957;SDS011;63741;42.624;26.276;2022-12-07T07:50:16;32.78;;;15.80;;
74957;SDS011;63741;42.624;26.276;2022-12-07T07:52:44;30.65;;;14.85;;
74957;SDS011;63741;42.624;26.276;2022-12-07T07:55:12;35.58;;;16.50;;
74957;SDS011;63741;42.624;26.276;2022-12-07T07:57:39;31.80;;;15.02;;
74957;SDS011;63741;42.624;26.276;2022-12-07T08:00:07;30.80;;;15.38;;
74957;SDS011;63741;42.624;26.276;2022-12-07T08:02:42;31.67;;;15.07;;
74957;SDS011;63741;42.624;26.276;2022-12-07T08:05:10;30.73;;;14.40;;
74957;SDS011;63741;42.624;26.276;2022-12-07T08:07:38;32.88;;;14.90;;
74957;SDS011;63741;42.624;26.276;2022-12-07T08:10:06;30.90;;;14.93;;
74957;SDS011;63741;42.624;26.276;2022-12-07T08:12:37;32.08;;;14.93;;
74957;SDS011;63741;42.624;26.276;2022-12-07T08:15:25;30.63;;;14.38;;
74957;SDS011;63741;42.624;26.276;2022-12-07T08:17:56;31.63;;;15.57;;
74957;SDS011;63741;42.624;26.276;2022-12-07T08:20:24;26.77;;;13.80;;
74957;SDS011;63741;42.624;26.276;2022-12-07T08:22:51;30.13;;;14.57;;
74957;SDS011;63741;42.624;26.276;2022-12-07T08:25:18;31.02;;;14.90;;
74957;SDS011;63741;42.624;26.276;2022-12-07T08:27:45;37.97;;;16.35;;
74957;SDS011;63741;42.624;26.276;2022-12-07T08:30:13;30.73;;;14.02;;
74957;SDS011;63741;42.624;26.276;2022-12-07T08:32:40;34.65;;;14.75;;
74957;SDS011;63741;42.624;26.276;2022-12-07T08:35:07;32.63;;;15.38;;
74957;SDS011;63741;42.624;26.276;2022-12-07T08:37:34;35.47;;;16.88;;
74957;SDS011;63741;42.624;26.276;2022-12-07T08:40:01;37.80;;;16.35;;
74957;SDS011;63741;42.624;26.276;2022-12-07T08:42:30;160.63;;;19.55;;
74957;SDS011;63741;42.624;26.276;2022-12-07T08:45:07;113.22;;;17.90;;
74957;SDS011;63741;42.624;26.276;2022-12-07T08:47:37;130.50;;;17.92;;
74957;SDS011;63741;42.624;26.276;2022-12-07T08:50:08;1145.70;;;112.28;;
74957;SDS011;63741;42.624;26.276;2022-12-07T08:52:36;241.70;;;28.35;;
74957;SDS011;63741;42.624;26.276;2022-12-07T08:55:04;478.67;;;43.83;;
74957;SDS011;63741;42.624;26.276;2022-12-07T08:57:32;186.90;;;22.58;;
74957;SDS011;63741;42.624;26.276;2022-12-07T09:00:01;206.85;;;25.10;;
74957;SDS011;63741;42.624;26.276;2022-12-07T09:02:29;101.68;;;19.33;;
74957;SDS011;63741;42.624;26.276;2022-12-07T09:04:57;69.97;;;16.88;;
74957;SDS011;63741;42.624;26.276;2022-12-07T09:07:24;66.55;;;16.98;;
74957;SDS011;63741;42.624;26.276;2022-12-07T09:09:52;67.57;;;17.13;;
74957;SDS011;63741;42.624;26.276;2022-12-07T09:12:19;115.03;;;19.17;;
74957;SDS011;63741;42.624;26.276;2022-12-07T09:14:46;42.40;;;15.70;;
74957;SDS011;63741;42.624;26.276;2022-12-07T09:17:13;102.35;;;20.08;;
74957;SDS011;63741;42.624;26.276;2022-12-07T09:19:40;147.50;;;22.75;;
74957;SDS011;63741;42.624;26.276;2022-12-07T09:22:08;147.45;;;22.88;;
74957;SDS011;63741;42.624;26.276;2022-12-07T09:24:35;154.73;;;24.50;;
74957;SDS011;63741;42.624;26.276;2022-12-07T09:27:02;331.17;;;39.08;;
74957;SDS011;63741;42.624;26.276;2022-12-07T09:29:29;787.63;;;74.63;;
74957;SDS011;63741;42.624;26.276;2022-12-07T09:31:56;367.48;;;41.55;;
74957;SDS011;63741;42.624;26.276;2022-12-07T09:34:23;1011.42;;;100.50;;
74957;SDS011;63741;42.624;26.276;2022-12-07T09:36:50;284.30;;;32.60;;
74957;SDS011;63741;42.624;26.276;2022-12-07T09:39:17;126.45;;;22.55;;
74957;SDS011;63741;42.624;26.276;2022-12-07T09:41:45;81.43;;;18.85;;
74957;SDS011;63741;42.624;26.276;2022-12-07T09:44:13;62.00;;;18.40;;
74957;SDS011;63741;42.624;26.276;2022-12-07T09:46:44;67.85;;;17.00;;
74957;SDS011;63741;42.624;26.276;2022-12-07T09:49:12;51.30;;;17.48;;
74957;SDS011;63741;42.624;26.276;2022-12-07T09:51:45;62.85;;;17.23;;
74957;SDS011;63741;42.624;26.276;2022-12-07T09:54:13;50.50;;;16.95;;
74957;SDS011;63741;42.624;26.276;2022-12-07T09:56:42;43.15;;;16.75;;
74957;SDS011;63741;42.624;26.276;2022-12-07T09:59:15;48.30;;;16.27;;
74957;SDS011;63741;42.624;26.276;2022-12-07T10:01:46;53.35;;;16.45;;
74957;SDS011;63741;42.624;26.276;2022-12-07T10:04:26;36.97;;;13.68;;
74957;SDS011;63741;42.624;26.276;2022-12-07T10:06:53;37.13;;;14.73;;
74957;SDS011;63741;42.624;26.276;2022-12-07T10:09:21;36.78;;;14.13;;
74957;SDS011;63741;42.624;26.276;2022-12-07T10:17:36;29.10;;;14.70;;
74957;SDS011;63741;42.624;26.276;2022-12-07T10:20:20;33.15;;;15.40;;
74957;SDS011;63741;42.624;26.276;2022-12-07T10:25:24;32.03;;;16.02;;
74957;SDS011;63741;42.624;26.276;2022-12-07T10:28:00;27.38;;;12.57;;
74957;SDS011;63741;42.624;26.276;2022-12-07T10:35:58;27.00;;;11.32;;
74957;SDS011;63741;42.624;26.276;2022-12-07T10:38:27;26.52;;;11.30;;
74957;SDS011;63741;42.624;26.276;2022-12-07T10:41:05;23.45;;;11.63;;
74957;SDS011;63741;42.624;26.276;2022-12-07T10:43:33;27.55;;;12.57;;
74957;SDS011;63741;42.624;26.276;2022-12-07T11:00:21;35.47;;;13.60;;
74957;SDS011;63741;42.624;26.276;2022-12-07T11:06:01;28.20;;;12.98;;
74957;SDS011;63741;42.624;26.276;2022-12-07T11:13:56;18.48;;;9.80;;
74957;SDS011;63741;42.624;26.276;2022-12-07T11:16:46;22.13;;;10.52;;
74957;SDS011;63741;42.624;26.276;2022-12-07T11:22:38;20.45;;;9.65;;
74957;SDS011;63741;42.624;26.276;2022-12-07T11:25:49;23.27;;;9.85;;
74957;SDS011;63741;42.624;26.276;2022-12-07T11:28:34;19.15;;;9.70;;
74957;SDS011;63741;42.624;26.276;2022-12-07T11:31:28;17.90;;;8.50;;
74957;SDS011;63741;42.624;26.276;2022-12-07T11:36:49;17.50;;;8.25;;
74957;SDS011;63741;42.624;26.276;2022-12-07T11:39:28;15.95;;;8.27;;
74957;SDS011;63741;42.624;26.276;2022-12-07T11:42:24;19.38;;;8.82;;
74957;SDS011;63741;42.624;26.276;2022-12-07T11:53:20;13.77;;;8.10;;
74957;SDS011;63741;42.624;26.276;2022-12-07T12:06:27;16.77;;;9.27;;
74957;SDS011;63741;42.624;26.276;2022-12-07T12:14:53;18.25;;;8.65;;
74957;SDS011;63741;42.624;26.276;2022-12-07T12:25:34;19.40;;;7.90;;
74957;SDS011;63741;42.624;26.276;2022-12-07T12:28:05;18.65;;;9.32;;
74957;SDS011;63741;42.624;26.276;2022-12-07T12:30:36;20.88;;;7.97;;
74957;SDS011;63741;42.624;26.276;2022-12-07T12:36:16;15.68;;;8.02;;
74957;SDS011;63741;42.624;26.276;2022-12-07T12:51:43;19.27;;;7.80;;
74957;SDS011;63741;42.624;26.276;2022-12-07T12:56:55;14.23;;;7.82;;
74957;SDS011;63741;42.624;26.276;2022-12-07T13:04:55;15.68;;;7.97;;
74957;SDS011;63741;42.624;26.276;2022-12-07T13:10:29;14.02;;;7.47;;
74957;SDS011;63741;42.624;26.276;2022-12-07T13:15:38;12.55;;;7.70;;
74957;SDS011;63741;42.624;26.276;2022-12-07T13:18:22;47.60;;;10.80;;
74957;SDS011;63741;42.624;26.276;2022-12-07T13:20:58;25.10;;;10.25;;
74957;SDS011;63741;42.624;26.276;2022-12-07T13:29:09;19.90;;;9.80;;
74957;SDS011;63741;42.624;26.276;2022-12-07T13:31:41;17.55;;;8.75;;
74957;SDS011;63741;42.624;26.276;2022-12-07T13:37:01;18.40;;;8.98;;
74957;SDS011;63741;42.624;26.276;2022-12-07T13:39:54;14.95;;;7.85;;
74957;SDS011;63741;42.624;26.276;2022-12-07T13:42:44;23.25;;;9.13;;
74957;SDS011;63741;42.624;26.276;2022-12-07T13:45:22;30.05;;;9.35;;
74957;SDS011;63741;42.624;26.276;2022-12-07T13:48:46;15.50;;;8.60;;
74957;SDS011;63741;42.624;26.276;2022-12-07T13:51:16;16.77;;;9.57;;
74957;SDS011;63741;42.624;26.276;2022-12-07T13:53:46;25.70;;;9.43;;
74957;SDS011;63741;42.624;26.276;2022-12-07T13:56:14;16.98;;;9.15;;
74957;SDS011;63741;42.624;26.276;2022-12-07T13:58:42;18.38;;;10.65;;
74957;SDS011;63741;42.624;26.276;2022-12-07T14:01:09;35.15;;;12.48;;
74957;SDS011;63741;42.624;26.276;2022-12-07T14:03:36;28.40;;;11.70;;
74957;SDS011;63741;42.624;26.276;2022-12-07T14:06:15;21.70;;;9.85;;
74957;SDS011;63741;42.624;26.276;2022-12-07T14:08:44;17.80;;;9.70;;
74957;SDS011;63741;42.624;26.276;2022-12-07T14:11:18;23.98;;;11.15;;
74957;SDS011;63741;42.624;26.276;2022-12-07T14:13:51;20.23;;;9.80;;
74957;SDS011;63741;42.624;26.276;2022-12-07T14:18:56;20.58;;;9.35;;
74957;SDS011;63741;42.624;26.276;2022-12-07T14:21:25;26.55;;;9.65;;
74957;SDS011;63741;42.624;26.276;2022-12-07T14:26:46;36.92;;;9.98;;
74957;SDS011;63741;42.624;26.276;2022-12-07T14:29:21;20.63;;;9.25;;
74957;SDS011;63741;42.624;26.276;2022-12-07T14:31:52;18.08;;;8.60;;
74957;SDS011;63741;42.624;26.276;2022-12-07T14:34:23;21.17;;;9.35;;
74957;SDS011;63741;42.624;26.276;2022-12-07T14:36:50;16.80;;;9.30;;
74957;SDS011;63741;42.624;26.276;2022-12-07T14:39:18;17.70;;;9.45;;
74957;SDS011;63741;42.624;26.276;2022-12-07T14:41:45;20.35;;;10.25;;
74957;SDS011;63741;42.624;26.276;2022-12-07T14:44:18;18.23;;;10.38;;
74957;SDS011;63741;42.624;26.276;2022-12-07T14:46:51;19.45;;;10.18;;
74957;SDS011;63741;42.624;26.276;2022-12-07T14:49:38;23.98;;;10.80;;
74957;SDS011;63741;42.624;26.276;2022-12-07T14:52:05;19.52;;;10.70;;
74957;SDS011;63741;42.624;26.276;2022-12-07T14:54:59;23.50;;;11.00;;
74957;SDS011;63741;42.624;26.276;2022-12-07T14:57:27;26.67;;;10.50;;
74957;SDS011;63741;42.624;26.276;2022-12-07T14:59:54;29.70;;;11.57;;
74957;SDS011;63741;42.624;26.276;2022-12-07T15:02:21;50.28;;;17.00;;
74957;SDS011;63741;42.624;26.276;2022-12-07T15:04:47;43.72;;;18.15;;
74957;SDS011;63741;42.624;26.276;2022-12-07T15:07:18;37.47;;;18.35;;
74957;SDS011;63741;42.624;26.276;2022-12-07T15:09:47;34.45;;;19.20;;
74957;SDS011;63741;42.624;26.276;2022-12-07T15:12:14;37.15;;;21.48;;
74957;SDS011;63741;42.624;26.276;2022-12-07T15:14:41;28.77;;;14.82;;
74957;SDS011;63741;42.624;26.276;2022-12-07T15:17:10;28.98;;;14.40;;
74957;SDS011;63741;42.624;26.276;2022-12-07T15:19:55;29.95;;;12.55;;
74957;SDS011;63741;42.624;26.276;2022-12-07T15:22:22;21.70;;;11.32;;
74957;SDS011;63741;42.624;26.276;2022-12-07T15:24:48;45.17;;;18.10;;
74957;SDS011;63741;42.624;26.276;2022-12-07T15:27:15;71.25;;;29.30;;
74957;SDS011;63741;42.624;26.276;2022-12-07T15:29:42;57.65;;;27.67;;
74957;SDS011;63741;42.624;26.276;2022-12-07T15:32:09;47.25;;;25.55;;
74957;SDS011;63741;42.624;26.276;2022-12-07T15:34:36;40.15;;;19.98;;
74957;SDS011;63741;42.624;26.276;2022-12-07T15:37:06;32.03;;;18.63;;
74957;SDS011;63741;42.624;26.276;2022-12-07T15:39:34;32.67;;;17.83;;
74957;SDS011;63741;42.624;26.276;2022-12-07T15:42:02;35.67;;;19.42;;
74957;SDS011;63741;42.624;26.276;2022-12-07T15:44:30;44.15;;;20.70;;
74957;SDS011;63741;42.624;26.276;2022-12-07T15:47:15;48.88;;;22.15;;
74957;SDS011;63741;42.624;26.276;2022-12-07T15:49:43;46.05;;;20.75;;
74957;SDS011;63741;42.624;26.276;2022-12-07T15:52:09;70.95;;;28.38;;
74957;SDS011;63741;42.624;26.276;2022-12-07T15:54:36;84.07;;;32.60;;
74957;SDS011;63741;42.624;26.276;2022-12-07T15:57:03;95.20;;;34.58;;
74957;SDS011;63741;42.624;26.276;2022-12-07T15:59:30;51.58;;;23.48;;
74957;SDS011;63741;42.624;26.276;2022-12-07T16:01:58;77.00;;;41.28;;
74957;SDS011;63741;42.624;26.276;2022-12-07T16:04:26;99.43;;;53.17;;
74957;SDS011;63741;42.624;26.276;2022-12-07T16:06:55;117.15;;;60.28;;
74957;SDS011;63741;42.624;26.276;2022-12-07T16:09:22;93.47;;;50.53;;
74957;SDS011;63741;42.624;26.276;2022-12-07T16:11:49;103.30;;;54.83;;
74957;SDS011;63741;42.624;26.276;2022-12-07T16:14:17;87.20;;;46.70;;
74957;SDS011;63741;42.624;26.276;2022-12-07T16:16:44;72.70;;;39.55;;
74957;SDS011;63741;42.624;26.276;2022-12-07T16:19:11;78.32;;;41.03;;
74957;SDS011;63741;42.624;26.276;2022-12-07T16:21:38;66.55;;;33.58;;
74957;SDS011;63741;42.624;26.276;2022-12-07T16:24:06;65.78;;;34.78;;
74957;SDS011;63741;42.624;26.276;2022-12-07T16:26:33;64.35;;;34.58;;
74957;SDS011;63741;42.624;26.276;2022-12-07T16:29:00;55.78;;;30.27;;
74957;SDS011;63741;42.624;26.276;2022-12-07T16:31:27;74.50;;;40.38;;
74957;SDS011;63741;42.624;26.276;2022-12-07T16:33:55;79.57;;;41.42;;
74957;SDS011;63741;42.624;26.276;2022-12-07T16:36:24;84.07;;;44.40;;
74957;SDS011;63741;42.624;26.276;2022-12-07T16:39:12;101.03;;;50.20;;
74957;SDS011;63741;42.624;26.276;2022-12-07T16:41:39;84.85;;;45.85;;
74957;SDS011;63741;42.624;26.276;2022-12-07T16:44:09;74.50;;;42.70;;
74957;SDS011;63741;42.624;26.276;2022-12-07T16:46:37;80.47;;;45.97;;
74957;SDS011;63741;42.624;26.276;2022-12-07T16:49:04;82.50;;;45.95;;
74957;SDS011;63741;42.624;26.276;2022-12-07T16:51:31;80.82;;;45.47;;
74957;SDS011;63741;42.624;26.276;2022-12-07T16:54:01;74.72;;;41.70;;
74957;SDS011;63741;42.624;26.276;2022-12-07T16:56:28;78.43;;;47.03;;